Skip Navigation LinksHome page > Weather > Current weather Skip Navigation Links

Current Weather

Carroll County Regional/Jack B Poage Field, Westminster, Md.

For information only: do not use for flight planning or navigation.
Latest weather
Observation time Tuesday, January 26, 2021 3:55 PM EST
Local time Tuesday, January 26, 2021 4:13 PM EST
Flight conditions Low Instrument Meteorological Conditions
Winds
Wind speed calm
Visibility 1 mi.
Present weather mist
Sky condition
Ceiling 400 ft. overcast
Cloud layer overcast 400 ft.
Temperature 36°F
Dewpoint 36°F
Altimeter 29.82 in.Hg
Precipitation
Precipitation last hour 0.01 in.
Derived measurements
Relative humidity 100%
Wind chill 36°F
Density altitude -571 ft.
Remarks
Fully automated report.
Automated weather observing station with precipitation discriminator.
METAR KDMW 262055Z AUTO 00000KT 1SM BR OVC004 02/02 A2982 RMK AO2 P0001

Settings

Location code

InnerDrive.Weather 4.0.6770.0 Release CLR 4.0.30319.42000
Copyright ©2018 Inner Drive Technology. All rights reserved. Portions Copyright ©1986-2018 David Braverman.

Find weather

Site navigation


Skip Navigation Links

Place info

Page info

PayPal - The safer, easier way to pay online!

Return home.

Copyright ©2021 Inner Drive Technology. Purveyors of fine, hand-crafted computer software. Page printed 2021-01-26T21:13:36 UTC.